createdAt,value
2024-05-09T00:02:36.249Z,7.22
2024-05-09T00:05:26.270Z,7.21
2024-05-09T00:08:13.273Z,7.17
2024-05-09T00:10:54.275Z,7.17
2024-05-09T00:13:48.227Z,7.23
2024-05-09T00:16:35.186Z,7.26
2024-05-09T00:19:08.396Z,7.25
2024-05-09T00:21:55.181Z,7.22
2024-05-09T00:24:28.300Z,7.17
2024-05-09T00:27:22.192Z,7.14
2024-05-09T00:30:24.209Z,7.11
2024-05-09T00:33:18.384Z,7.10
2024-05-09T00:35:52.285Z,7.09
2024-05-09T00:38:39.182Z,7.08
2024-05-09T00:41:12.322Z,7.09
2024-05-09T00:43:59.243Z,7.07
2024-05-09T00:46:32.503Z,7.04
2024-05-09T00:49:19.398Z,6.99
2024-05-09T00:51:53.290Z,6.97
2024-05-09T00:54:40.212Z,6.93
2024-05-09T00:57:20.192Z,6.91
2024-05-09T01:00:22.650Z,6.89
2024-05-09T01:03:17.434Z,6.91
2024-05-09T01:05:51.408Z,6.92
2024-05-09T01:08:38.321Z,6.94
2024-05-09T01:11:12.434Z,6.96
2024-05-09T01:13:59.252Z,6.98
2024-05-09T01:16:32.311Z,6.97
2024-05-09T01:19:29.354Z,6.94
2024-05-09T01:22:04.621Z,6.95
2024-05-09T01:24:51.327Z,6.97
2024-05-09T01:27:25.375Z,6.97
2024-05-09T01:30:17.216Z,6.95
2024-05-09T01:32:54.584Z,6.91
2024-05-09T01:35:42.544Z,6.85
2024-05-09T01:38:19.964Z,6.85
2024-05-09T01:41:07.296Z,6.83
2024-05-09T01:43:47.246Z,6.81
2024-05-09T01:46:41.230Z,6.76
2024-05-09T01:49:28.325Z,6.70
2024-05-09T01:52:02.331Z,6.65
2024-05-09T01:54:49.243Z,6.58
2024-05-09T01:57:22.406Z,6.50
2024-05-09T02:00:10.563Z,6.46
2024-05-09T02:02:44.509Z,6.42
2024-05-09T02:05:31.332Z,6.39
2024-05-09T02:08:04.420Z,6.34
2024-05-09T02:10:51.511Z,6.31
2024-05-09T02:13:25.361Z,6.26
2024-05-09T02:16:17.221Z,6.21
2024-05-09T02:18:50.520Z,6.16
2024-05-09T02:21:41.223Z,6.07
2024-05-09T02:24:14.336Z,5.99
2024-05-09T02:27:08.239Z,5.94
2024-05-09T02:29:55.255Z,5.90
2024-05-09T02:32:28.522Z,5.85
2024-05-09T02:35:15.250Z,5.83
2024-05-09T02:37:48.438Z,5.82
2024-05-09T02:40:38.024Z,5.79
2024-05-09T02:43:14.369Z,5.79
2024-05-09T02:46:01.256Z,5.80
2024-05-09T02:48:41.473Z,5.77
2024-05-09T02:51:21.295Z,5.75
2024-05-09T02:54:01.374Z,5.76
2024-05-09T02:56:41.347Z,5.75
2024-05-09T02:59:21.538Z,5.74
2024-05-09T03:02:02.307Z,5.73
2024-05-09T03:04:42.368Z,5.71
2024-05-09T03:07:22.270Z,5.70
2024-05-09T03:10:02.691Z,5.67
2024-05-09T03:12:43.285Z,5.65
2024-05-09T03:15:23.349Z,5.66
2024-05-09T03:18:06.742Z,5.67
2024-05-09T03:20:54.332Z,5.67
2024-05-09T03:23:27.663Z,5.63
2024-05-09T03:26:14.304Z,5.60
2024-05-09T03:29:08.306Z,5.57
2024-05-09T03:31:55.341Z,5.51
2024-05-09T03:34:28.371Z,5.48
2024-05-09T03:37:15.281Z,5.41
2024-05-09T03:39:48.351Z,5.38
2024-05-09T03:42:35.264Z,5.36
2024-05-09T03:45:08.377Z,5.36
2024-05-09T03:47:55.590Z,5.37
2024-05-09T03:50:33.960Z,5.39
2024-05-09T03:53:22.306Z,5.42
2024-05-09T03:56:03.310Z,5.46
2024-05-09T03:58:57.327Z,5.50
2024-05-09T04:01:44.458Z,5.54
2024-05-09T04:04:18.432Z,5.56
2024-05-09T04:07:05.304Z,5.57
2024-05-09T04:09:38.379Z,5.56
2024-05-09T04:12:25.341Z,5.60
2024-05-09T04:14:58.396Z,5.65
2024-05-09T04:17:45.402Z,5.69
2024-05-09T04:20:29.193Z,5.74
2024-05-09T04:23:24.465Z,5.79
2024-05-09T04:25:58.416Z,5.86
2024-05-09T04:28:45.296Z,5.94
2024-05-09T04:31:18.417Z,5.98
2024-05-09T04:34:05.698Z,6.03
2024-05-09T04:36:46.295Z,6.13
2024-05-09T04:39:33.266Z,6.24
2024-05-09T04:42:13.306Z,6.37
2024-05-09T04:45:07.294Z,6.50
2024-05-09T04:47:54.457Z,6.58
2024-05-09T04:50:35.827Z,6.68
2024-05-09T04:53:25.317Z,6.90
2024-05-09T04:55:58.479Z,7.17
2024-05-09T04:58:45.313Z,7.46
2024-05-09T05:01:18.557Z,7.71
2024-05-09T05:04:05.360Z,7.98
2024-05-09T05:06:38.408Z,8.24
2024-05-09T05:09:25.302Z,8.52
2024-05-09T05:11:59.860Z,8.80
2024-05-09T05:14:47.302Z,9.15
2024-05-09T05:17:20.610Z,9.45
2024-05-09T05:20:08.635Z,9.71
2024-05-09T05:22:46.021Z,10.00
2024-05-09T05:25:33.297Z,10.32
2024-05-09T05:28:06.415Z,10.58
2024-05-09T05:30:54.296Z,10.86
2024-05-09T05:33:34.356Z,11.14
2024-05-09T05:36:28.318Z,11.50
2024-05-09T05:39:15.319Z,11.83
2024-05-09T05:41:48.420Z,12.09
2024-05-09T05:44:35.345Z,12.39
2024-05-09T05:47:12.529Z,12.72
2024-05-09T05:49:59.375Z,13.06
2024-05-09T05:52:39.417Z,13.38
2024-05-09T05:55:19.307Z,13.71
2024-05-09T05:57:59.739Z,13.98
2024-05-09T06:00:40.679Z,14.26
2024-05-09T06:03:21.472Z,14.46
2024-05-09T06:06:01.388Z,14.75
2024-05-09T06:08:41.446Z,15.04
2024-05-09T06:11:21.400Z,15.27
2024-05-09T06:14:05.518Z,15.54
2024-05-09T06:16:48.361Z,15.77
2024-05-09T06:19:28.570Z,16.00
2024-05-09T06:22:03.167Z,16.20
2024-05-09T06:24:50.351Z,16.38
2024-05-09T06:27:23.435Z,16.54
2024-05-09T06:30:21.077Z,16.79
2024-05-09T06:33:02.548Z,17.06
2024-05-09T06:35:50.500Z,17.17
2024-05-09T06:38:23.495Z,17.13
2024-05-09T06:41:12.421Z,17.37
2024-05-09T06:43:45.467Z,17.60
2024-05-09T06:46:33.357Z,17.81
2024-05-09T06:49:08.588Z,17.90
2024-05-09T06:51:55.365Z,17.87
2024-05-09T06:54:38.513Z,18.05
2024-05-09T06:57:18.390Z,18.24
2024-05-09T07:00:18.606Z,18.22
2024-05-09T07:03:16.910Z,18.21
2024-05-09T07:05:59.470Z,18.46
2024-05-09T07:08:53.379Z,18.49
2024-05-09T07:11:40.613Z,18.56
2024-05-09T07:14:14.654Z,18.81
2024-05-09T07:17:01.492Z,18.94
2024-05-09T07:19:35.563Z,19.14
2024-05-09T07:22:22.443Z,19.26
2024-05-09T07:24:55.495Z,19.30
2024-05-09T07:27:57.372Z,19.32
2024-05-09T07:30:51.391Z,19.53
2024-05-09T07:33:45.406Z,19.68
2024-05-09T07:36:32.392Z,19.89
2024-05-09T07:39:06.124Z,19.93
2024-05-09T07:41:53.382Z,19.64
2024-05-09T07:44:26.560Z,19.87
2024-05-09T07:48:28.048Z,20.23
2024-05-09T07:52:22.644Z,20.51
2024-05-09T07:53:37.289Z,20.50
2024-05-09T07:56:06.786Z,20.76
2024-05-09T07:58:53.779Z,20.93
2024-05-09T08:01:41.449Z,21.01
2024-05-09T08:04:17.837Z,21.10
2024-05-09T08:07:04.497Z,21.31
2024-05-09T08:09:46.537Z,21.51
2024-05-09T08:12:26.564Z,21.78
2024-05-09T08:15:06.432Z,21.72
2024-05-09T08:17:53.491Z,21.61
2024-05-09T08:20:33.672Z,21.75
2024-05-09T08:23:22.442Z,21.81
2024-05-09T08:25:55.824Z,21.76
2024-05-09T08:28:42.476Z,22.04
2024-05-09T08:31:15.890Z,22.27
2024-05-09T08:34:03.600Z,22.49
2024-05-09T08:36:36.866Z,22.75
2024-05-09T08:39:23.410Z,22.77
2024-05-09T08:41:56.861Z,22.66
2024-05-09T08:44:43.451Z,22.45
2024-05-09T08:47:17.215Z,22.44
2024-05-09T08:50:08.596Z,22.59
2024-05-09T08:52:51.432Z,22.75
2024-05-09T08:55:41.969Z,23.04
2024-05-09T08:58:20.910Z,23.17
2024-05-09T09:01:07.540Z,23.22
2024-05-09T09:03:48.688Z,23.21
2024-05-09T09:06:28.562Z,23.40
2024-05-09T09:09:10.475Z,23.64
2024-05-09T09:11:57.491Z,23.74
2024-05-09T09:14:37.459Z,23.83
2024-05-09T09:17:23.681Z,23.95
2024-05-09T09:20:03.538Z,23.61
2024-05-09T09:22:44.540Z,23.69
2024-05-09T09:25:24.520Z,23.92
2024-05-09T09:28:19.495Z,24.02
2024-05-09T09:31:10.459Z,24.07
2024-05-09T09:33:57.782Z,24.17
2024-05-09T09:36:46.548Z,24.00
2024-05-09T09:39:29.665Z,23.68
2024-05-09T09:42:11.525Z,23.89
2024-05-09T09:45:05.001Z,24.21
2024-05-09T09:47:48.079Z,24.23
2024-05-09T09:50:35.669Z,24.16
2024-05-09T09:53:10.430Z,24.19
2024-05-09T09:55:57.473Z,24.58
2024-05-09T09:58:34.781Z,24.85
2024-05-09T10:01:21.610Z,24.95
2024-05-09T10:03:55.077Z,25.16
2024-05-09T10:06:43.525Z,25.14
2024-05-09T10:09:18.309Z,25.26
2024-05-09T10:14:49.256Z,25.52
2024-05-09T10:17:36.674Z,25.62
2024-05-09T10:20:18.269Z,25.69
2024-05-09T10:23:08.489Z,25.37
2024-05-09T10:25:41.869Z,25.09
2024-05-09T10:28:29.538Z,24.99
2024-05-09T10:31:10.001Z,24.90
2024-05-09T10:34:01.760Z,24.75
2024-05-09T10:36:42.061Z,24.78
2024-05-09T10:39:29.632Z,24.94
2024-05-09T10:42:04.053Z,25.10
2024-05-09T10:44:53.580Z,25.07
2024-05-09T10:47:30.077Z,24.83
2024-05-09T10:50:25.068Z,24.66
2024-05-09T10:53:02.667Z,24.78
2024-05-09T10:55:49.534Z,24.76
2024-05-09T10:58:23.870Z,24.80
2024-05-09T11:01:11.685Z,24.91
2024-05-09T11:03:55.680Z,24.90
2024-05-09T11:06:38.285Z,24.92
2024-05-09T11:09:18.723Z,24.75
2024-05-09T11:11:58.690Z,24.92
2024-05-09T11:14:38.539Z,24.48
2024-05-09T11:17:18.682Z,24.32
2024-05-09T11:19:58.649Z,24.11
2024-05-09T11:22:39.682Z,24.41
2024-05-09T11:25:19.831Z,24.70
2024-05-09T11:28:14.722Z,24.55
2024-05-09T11:31:14.672Z,24.47
2024-05-09T11:33:57.709Z,24.50
2024-05-09T11:36:51.647Z,24.37
2024-05-09T11:39:38.585Z,23.95
2024-05-09T11:42:11.702Z,23.91
2024-05-09T11:44:58.549Z,24.16
2024-05-09T11:47:31.784Z,24.04
2024-05-09T11:50:26.897Z,23.72
2024-05-09T11:53:03.688Z,23.61
2024-05-09T11:55:50.602Z,23.40
2024-05-09T11:58:24.745Z,23.24
2024-05-09T12:01:14.680Z,23.10
2024-05-09T12:03:49.610Z,22.77
2024-05-09T12:06:36.560Z,22.28
2024-05-09T12:09:09.721Z,22.05
2024-05-09T12:11:50.671Z,21.90
2024-05-09T12:14:30.689Z,21.70
2024-05-09T12:17:12.692Z,21.48
2024-05-09T12:19:52.983Z,21.14
2024-05-09T12:22:32.590Z,20.83
2024-05-09T12:25:19.671Z,20.45
2024-05-09T12:27:52.708Z,20.17
2024-05-09T12:30:43.648Z,19.99
2024-05-09T12:33:26.673Z,19.86
2024-05-09T12:36:13.599Z,19.73
2024-05-09T12:38:46.776Z,19.64
2024-05-09T12:41:33.590Z,19.55
2024-05-09T12:44:06.861Z,19.44
2024-05-09T12:46:53.591Z,19.29
2024-05-09T12:49:28.973Z,19.23
2024-05-09T12:52:15.613Z,19.14
2024-05-09T12:54:55.655Z,19.10
2024-05-09T12:57:42.639Z,19.03
2024-05-09T13:00:27.108Z,18.89
2024-05-09T13:03:18.705Z,18.82
2024-05-09T13:05:52.834Z,18.74
2024-05-09T13:08:39.605Z,18.58
2024-05-09T13:11:19.707Z,18.46
2024-05-09T13:14:13.629Z,18.29
2024-05-09T13:17:00.686Z,18.25
2024-05-09T13:19:33.781Z,18.19
2024-05-09T13:22:20.666Z,18.13
2024-05-09T13:24:53.760Z,18.11
2024-05-09T13:27:47.653Z,18.04
2024-05-09T13:30:42.413Z,18.00
2024-05-09T13:33:29.790Z,17.91
2024-05-09T13:36:16.691Z,17.87
2024-05-09T13:38:56.622Z,17.86
2024-05-09T13:41:43.695Z,17.84
2024-05-09T13:44:16.976Z,17.79
2024-05-09T13:47:03.642Z,17.80
2024-05-09T13:49:37.115Z,17.82
2024-05-09T13:52:23.699Z,17.81
2024-05-09T13:54:57.080Z,17.77
2024-05-09T13:57:44.716Z,17.67
2024-05-09T14:00:40.605Z,17.56
2024-05-09T14:03:35.139Z,17.46
2024-05-09T14:06:12.834Z,17.42
2024-05-09T14:09:00.938Z,17.40
2024-05-09T14:11:34.096Z,17.33
2024-05-09T14:14:20.639Z,17.32
2024-05-09T14:16:54.202Z,17.33
2024-05-09T14:19:41.690Z,17.34
2024-05-09T14:22:15.190Z,17.37
2024-05-09T14:25:05.619Z,17.38
2024-05-09T14:27:59.738Z,17.36
2024-05-09T14:30:46.730Z,17.33
2024-05-09T14:33:31.959Z,17.24
2024-05-09T14:36:25.696Z,17.27
2024-05-09T14:39:12.666Z,17.25
2024-05-09T14:41:46.776Z,17.23
2024-05-09T14:44:33.640Z,17.29
2024-05-09T14:47:06.793Z,17.27
2024-05-09T14:49:53.717Z,17.24
2024-05-09T14:52:26.797Z,17.43
2024-05-09T14:55:13.794Z,17.72
2024-05-09T14:57:47.795Z,17.62
2024-05-09T15:00:36.320Z,17.51
2024-05-09T15:03:18.304Z,17.38
2024-05-09T15:05:58.699Z,17.27
2024-05-09T15:08:45.668Z,17.18
2024-05-09T15:11:19.053Z,17.11
2024-05-09T15:14:05.720Z,16.98
2024-05-09T15:16:39.240Z,16.94
2024-05-09T15:19:25.801Z,16.93
2024-05-09T15:21:59.093Z,16.89
2024-05-09T15:24:45.749Z,16.84
2024-05-09T15:27:32.709Z,16.81
2024-05-09T15:30:28.148Z,16.80
2024-05-09T15:33:05.565Z,16.78
2024-05-09T15:35:53.688Z,16.71
2024-05-09T15:38:27.812Z,16.71
2024-05-09T15:41:14.691Z,16.69
2024-05-09T15:43:50.288Z,16.68
2024-05-09T15:46:37.780Z,16.61
2024-05-09T15:49:17.848Z,16.55
2024-05-09T15:52:12.045Z,16.50
2024-05-09T15:54:58.719Z,16.45
2024-05-09T15:57:33.218Z,16.42
2024-05-09T16:00:28.533Z,16.37
2024-05-09T16:03:10.485Z,16.34
2024-05-09T16:05:58.839Z,16.35
2024-05-09T16:08:39.744Z,16.33
2024-05-09T16:11:27.767Z,16.32
2024-05-09T16:14:07.739Z,16.28
2024-05-09T16:17:01.797Z,16.23
2024-05-09T16:19:55.736Z,16.21
2024-05-09T16:22:42.694Z,16.15
2024-05-09T16:25:22.719Z,16.13
2024-05-09T16:28:17.786Z,16.09
2024-05-09T16:31:05.792Z,16.05
2024-05-09T16:33:40.980Z,16.01
2024-05-09T16:36:27.752Z,15.98
2024-05-09T16:39:00.864Z,15.97
2024-05-09T16:41:50.723Z,15.92
2024-05-09T16:44:35.627Z,15.84
2024-05-09T16:47:18.792Z,15.77
2024-05-09T16:49:58.889Z,15.71
2024-05-09T16:52:38.721Z,15.68
2024-05-09T16:55:19.331Z,15.63
2024-05-09T16:58:06.991Z,15.56
2024-05-09T17:00:43.417Z,15.47
2024-05-09T17:03:24.870Z,15.40
2024-05-09T17:06:12.771Z,15.29
2024-05-09T17:08:46.891Z,15.23
2024-05-09T17:11:33.776Z,15.17
2024-05-09T17:14:07.379Z,15.07
2024-05-09T17:16:54.854Z,14.98
2024-05-09T17:19:28.881Z,14.90
2024-05-09T17:22:15.953Z,14.82
2024-05-09T17:24:55.907Z,14.73
2024-05-09T17:27:49.760Z,14.63
2024-05-09T17:30:43.900Z,14.53
2024-05-09T17:33:30.902Z,14.45
2024-05-09T17:36:05.062Z,14.35
2024-05-09T17:38:51.743Z,14.26
2024-05-09T17:41:34.195Z,14.20
2024-05-09T17:44:27.744Z,14.09
2024-05-09T17:47:14.821Z,14.00
2024-05-09T17:49:47.930Z,13.89
2024-05-09T17:52:34.766Z,13.80
2024-05-09T17:55:07.910Z,13.71
2024-05-09T17:57:57.112Z,13.58
2024-05-09T18:00:40.121Z,13.51
2024-05-09T18:03:30.027Z,13.42
2024-05-09T18:06:03.972Z,13.32
2024-05-09T18:08:50.803Z,13.24
2024-05-09T18:11:26.936Z,13.15
2024-05-09T18:14:13.847Z,13.05
2024-05-09T18:16:56.316Z,12.98
2024-05-09T18:19:52.237Z,12.92
2024-05-09T18:22:45.827Z,12.86
2024-05-09T18:25:32.772Z,12.79
2024-05-09T18:28:15.087Z,12.69
2024-05-09T18:31:08.843Z,12.60
2024-05-09T18:33:58.246Z,12.51
2024-05-09T18:36:31.952Z,12.48
2024-05-09T18:39:18.791Z,12.40
2024-05-09T18:41:51.939Z,12.35
2024-05-09T18:44:41.482Z,12.30
2024-05-09T18:47:18.358Z,12.24
2024-05-09T18:50:14.946Z,12.19
2024-05-09T18:52:53.873Z,12.11
2024-05-09T18:55:43.747Z,12.03
2024-05-09T18:58:27.571Z,11.98
2024-05-09T19:01:21.870Z,11.93
2024-05-09T19:04:08.994Z,11.88
2024-05-09T19:06:42.941Z,11.82
2024-05-09T19:09:29.781Z,11.75
2024-05-09T19:12:06.423Z,11.70
2024-05-09T19:14:53.843Z,11.70
2024-05-09T19:17:26.966Z,11.66
2024-05-09T19:20:24.772Z,11.59
2024-05-09T19:23:03.002Z,11.49
2024-05-09T19:25:49.809Z,11.44
2024-05-09T19:28:29.895Z,11.36
2024-05-09T19:31:23.916Z,11.32
2024-05-09T19:34:11.853Z,11.25
2024-05-09T19:36:44.972Z,11.17
2024-05-09T19:39:31.839Z,11.12
2024-05-09T19:42:04.896Z,11.04
2024-05-09T19:44:51.785Z,10.99
2024-05-09T19:47:25.033Z,10.95
2024-05-09T19:50:16.305Z,10.88
2024-05-09T19:52:55.949Z,10.84
2024-05-09T19:55:42.912Z,10.78
2024-05-09T19:58:17.043Z,10.72
2024-05-09T20:01:03.936Z,10.69
2024-05-09T20:03:44.041Z,10.62
2024-05-09T20:06:32.848Z,10.58
2024-05-09T20:09:05.937Z,10.55
2024-05-09T20:11:52.899Z,10.51
2024-05-09T20:14:26.965Z,10.47
2024-05-09T20:17:13.811Z,10.41
2024-05-09T20:19:50.110Z,10.36
2024-05-09T20:22:36.829Z,10.32
2024-05-09T20:28:11.207Z,10.23
2024-05-09T20:30:57.870Z,10.21
2024-05-09T20:33:31.062Z,10.18
2024-05-09T20:36:17.843Z,10.12
2024-05-09T20:38:57.954Z,10.08
2024-05-09T20:41:37.835Z,10.01
2024-05-09T20:44:17.972Z,9.97
2024-05-09T20:46:57.841Z,9.87
2024-05-09T20:49:38.020Z,9.81
2024-05-09T20:52:18.896Z,9.76
2024-05-09T20:54:58.942Z,9.71
2024-05-09T20:57:38.923Z,9.66
2024-05-09T21:00:22.617Z,9.60
2024-05-09T21:03:12.022Z,9.52
2024-05-09T21:05:53.929Z,9.43
2024-05-09T21:08:33.936Z,9.34
2024-05-09T21:11:14.851Z,9.26
2024-05-09T21:13:57.012Z,9.18
2024-05-09T21:16:41.135Z,9.13
2024-05-09T21:19:20.959Z,9.08
2024-05-09T21:22:00.845Z,9.01
2024-05-09T21:24:41.025Z,8.93
2024-05-09T21:27:20.856Z,8.87
2024-05-09T21:30:22.293Z,8.80
2024-05-09T21:33:15.406Z,8.71
2024-05-09T21:35:49.971Z,8.63
2024-05-09T21:38:36.871Z,8.58
2024-05-09T21:41:10.336Z,8.53
2024-05-09T21:43:56.869Z,8.49
2024-05-09T21:46:30.154Z,8.40
2024-05-09T21:49:17.939Z,8.32
2024-05-09T21:51:50.987Z,8.29
2024-05-09T21:54:37.898Z,8.28
2024-05-09T21:57:18.883Z,8.28
2024-05-09T22:00:08.538Z,8.24
2024-05-09T22:02:50.899Z,8.19
2024-05-09T22:05:38.020Z,8.11
2024-05-09T22:08:24.873Z,8.04
2024-05-09T22:10:58.272Z,7.99
2024-05-09T22:13:44.860Z,7.97
2024-05-09T22:16:18.310Z,7.90
2024-05-09T22:19:05.187Z,7.85
2024-05-09T22:21:38.445Z,7.80
2024-05-09T22:24:24.882Z,7.77
2024-05-09T22:26:58.199Z,7.72
2024-05-09T22:29:44.914Z,7.67
2024-05-09T22:32:38.931Z,7.63
2024-05-09T22:35:25.880Z,7.60
2024-05-09T22:38:06.042Z,7.57
2024-05-09T22:40:49.065Z,7.55
2024-05-09T22:43:36.894Z,7.50
2024-05-09T22:46:31.081Z,7.46
2024-05-09T22:49:17.944Z,7.41
2024-05-09T22:51:50.995Z,7.38
2024-05-09T22:54:37.971Z,7.34
2024-05-09T22:57:11.973Z,7.29
2024-05-09T22:59:58.886Z,7.27
2024-05-09T23:02:32.076Z,7.21
2024-05-09T23:05:19.050Z,7.14
2024-05-09T23:07:53.022Z,7.07
2024-05-09T23:10:39.935Z,7.04
2024-05-09T23:13:13.349Z,7.04
2024-05-09T23:15:59.942Z,7.00
2024-05-09T23:18:40.421Z,6.97
2024-05-09T23:21:20.910Z,6.90
2024-05-09T23:24:00.997Z,6.89
2024-05-09T23:26:40.922Z,6.85
2024-05-09T23:29:34.925Z,6.83
2024-05-09T23:32:28.966Z,6.78
2024-05-09T23:35:15.904Z,6.73
2024-05-09T23:37:56.026Z,6.70
2024-05-09T23:40:39.610Z,6.65
2024-05-09T23:43:21.094Z,6.60
2024-05-09T23:46:01.023Z,6.57
2024-05-09T23:48:41.399Z,6.56
2024-05-09T23:51:21.963Z,6.53
2024-05-09T23:54:02.020Z,6.52
2024-05-09T23:56:41.917Z,6.46
2024-05-09T23:59:22.111Z,6.41
